createdAt,value
2017-01-22T00:00:49.548Z,23.4
2017-01-22T00:01:49.293Z,23.36
2017-01-22T00:02:49.236Z,23.37
2017-01-22T00:03:49.168Z,23.32
2017-01-22T00:04:49.109Z,23.46
2017-01-22T00:05:49.049Z,23.44
2017-01-22T00:06:48.987Z,23.37
2017-01-22T00:07:48.949Z,23.39
2017-01-22T00:08:48.860Z,23.4
2017-01-22T00:09:48.800Z,23.37
2017-01-22T00:10:48.739Z,23.44
2017-01-22T00:11:48.676Z,23.47
2017-01-22T00:12:49.005Z,23.47
2017-01-22T00:13:48.556Z,23.28
2017-01-22T00:14:48.493Z,23.36
2017-01-22T00:15:48.431Z,23.43
2017-01-22T00:16:48.370Z,23.34
2017-01-22T00:17:48.307Z,23.28
2017-01-22T00:18:48.243Z,23.37
2017-01-22T00:19:48.183Z,23.32
2017-01-22T00:20:48.121Z,23.37
2017-01-22T00:21:48.068Z,23.37
2017-01-22T00:22:48.028Z,23.32
2017-01-22T00:23:47.934Z,23.31
2017-01-22T00:24:47.873Z,23.27
2017-01-22T00:25:47.815Z,23.28
2017-01-22T00:26:47.748Z,23.32
2017-01-22T00:27:47.691Z,23.31
2017-01-22T00:28:47.630Z,23.37
2017-01-22T00:29:47.959Z,23.28
2017-01-22T00:30:47.501Z,23.32
2017-01-22T00:31:47.441Z,23.32
2017-01-22T00:32:47.382Z,23.31
2017-01-22T00:33:47.316Z,23.4
2017-01-22T00:34:47.255Z,23.31
2017-01-22T00:35:47.194Z,23.25
2017-01-22T00:36:47.131Z,23.34
2017-01-22T00:37:47.097Z,23.32
2017-01-22T00:38:47.007Z,23.36
2017-01-22T00:39:46.947Z,23.31
2017-01-22T00:40:46.882Z,23.32
2017-01-22T00:41:46.826Z,23.28
2017-01-22T00:42:46.760Z,23.31
2017-01-22T00:43:46.699Z,23.37
2017-01-22T00:44:46.637Z,23.28
2017-01-22T00:45:46.579Z,23.31
2017-01-22T00:46:46.516Z,23.27
2017-01-22T00:47:46.456Z,23.28
2017-01-22T00:48:46.392Z,23.34
2017-01-22T00:49:46.327Z,23.28
2017-01-22T00:50:46.267Z,23.36
2017-01-22T00:51:46.206Z,23.31
2017-01-22T00:52:46.146Z,23.34
2017-01-22T00:53:46.086Z,23.31
2017-01-22T00:54:46.018Z,23.27
2017-01-22T00:55:45.959Z,23.34
2017-01-22T00:56:45.904Z,23.25
2017-01-22T00:57:45.833Z,23.32
2017-01-22T00:58:45.774Z,23.32
2017-01-22T00:59:45.709Z,23.27
2017-01-22T01:02:59.759Z,23.36
2017-01-22T01:03:59.696Z,23.31
2017-01-22T01:04:59.632Z,23.36
2017-01-22T01:05:59.574Z,23.34
2017-01-22T01:06:59.509Z,23.32
2017-01-22T01:07:59.447Z,23.23
2017-01-22T01:08:59.383Z,23.28
2017-01-22T01:09:59.322Z,23.34
2017-01-22T01:10:59.473Z,23.31
2017-01-22T01:11:59.198Z,23.31
2017-01-22T01:12:59.529Z,23.25
2017-01-22T01:13:59.076Z,23.24
2017-01-22T01:14:59.019Z,23.25
2017-01-22T01:15:59.156Z,23.37
2017-01-22T01:16:58.893Z,23.31
2017-01-22T01:17:58.829Z,23.25
2017-01-22T01:18:58.771Z,23.23
2017-01-22T01:19:58.703Z,23.31
2017-01-22T01:20:58.644Z,23.27
2017-01-22T01:21:58.584Z,23.27
2017-01-22T01:22:58.517Z,23.25
2017-01-22T01:23:58.460Z,23.25
2017-01-22T01:24:58.394Z,23.24
2017-01-22T01:25:58.341Z,23.25
2017-01-22T01:26:58.272Z,23.21
2017-01-22T01:27:58.217Z,23.23
2017-01-22T01:28:58.147Z,23.28
2017-01-22T01:29:58.086Z,23.21
2017-01-22T01:30:58.026Z,23.28
2017-01-22T01:31:57.989Z,23.23
2017-01-22T01:32:57.900Z,23.24
2017-01-22T01:33:57.837Z,23.21
2017-01-22T01:34:57.777Z,23.25
2017-01-22T01:35:57.710Z,23.2
2017-01-22T01:36:57.654Z,23.21
2017-01-22T01:37:57.589Z,23.24
2017-01-22T01:38:57.536Z,23.2
2017-01-22T01:39:57.470Z,23.21
2017-01-22T01:40:57.412Z,23.24
2017-01-22T01:41:57.340Z,23.18
2017-01-22T01:42:57.283Z,23.28
2017-01-22T01:43:57.218Z,23.24
2017-01-22T01:44:57.156Z,23.23
2017-01-22T01:45:57.097Z,23.23
2017-01-22T01:46:57.043Z,23.23
2017-01-22T01:47:56.971Z,23.21
2017-01-22T01:48:56.909Z,23.23
2017-01-22T01:49:56.872Z,23.25
2017-01-22T01:50:56.785Z,23.17
2017-01-22T01:51:56.725Z,23.23
2017-01-22T01:52:56.670Z,23.2
2017-01-22T01:53:56.600Z,23.23
2017-01-22T01:54:56.548Z,23.24
2017-01-22T01:55:56.473Z,23.23
2017-01-22T01:56:56.441Z,23.25
2017-01-22T01:57:56.356Z,23.27
2017-01-22T01:58:56.300Z,23.25
2017-01-22T01:59:56.238Z,23.25
2017-01-22T02:00:56.173Z,23.21
2017-01-22T02:01:56.124Z,23.25
2017-01-22T02:02:56.039Z,23.18
2017-01-22T02:03:55.979Z,23.23
2017-01-22T02:04:55.922Z,23.23
2017-01-22T02:05:55.866Z,23.25
2017-01-22T02:06:55.801Z,23.21
2017-01-22T02:07:55.753Z,23.21
2017-01-22T02:08:55.691Z,23.21
2017-01-22T02:09:55.641Z,23.27
2017-01-22T02:10:55.557Z,23.28
2017-01-22T02:11:55.515Z,23.27
2017-01-22T02:12:55.424Z,23.36
2017-01-22T02:13:55.358Z,23.28
2017-01-22T02:14:55.693Z,23.27
2017-01-22T02:15:55.243Z,23.31
2017-01-22T02:16:55.177Z,23.34
2017-01-22T02:17:55.132Z,23.31
2017-01-22T02:18:55.051Z,23.34
2017-01-22T02:19:54.998Z,23.34
2017-01-22T02:20:54.925Z,23.31
2017-01-22T02:21:54.868Z,23.37
2017-01-22T02:22:54.802Z,23.34
2017-01-22T02:23:54.744Z,23.44
2017-01-22T02:24:54.683Z,23.39
2017-01-22T02:25:54.620Z,23.46
2017-01-22T02:26:54.558Z,23.39
2017-01-22T02:27:54.495Z,23.41
2017-01-22T02:28:54.431Z,23.32
2017-01-22T02:29:54.390Z,23.31
2017-01-22T02:30:54.314Z,23.36
2017-01-22T02:31:54.255Z,23.41
2017-01-22T02:32:54.188Z,23.39
2017-01-22T02:33:54.125Z,23.43
2017-01-22T02:34:54.074Z,23.44
2017-01-22T02:35:54.003Z,23.47
2017-01-22T02:36:53.939Z,23.47
2017-01-22T02:37:53.882Z,23.44
2017-01-22T02:38:53.818Z,23.41
2017-01-22T02:39:53.756Z,23.34
2017-01-22T02:40:53.692Z,23.39
2017-01-22T02:41:53.632Z,23.41
2017-01-22T02:42:53.568Z,23.41
2017-01-22T02:43:53.508Z,23.44
2017-01-22T02:44:53.446Z,23.47
2017-01-22T02:45:53.391Z,23.4
2017-01-22T02:46:53.324Z,23.44
2017-01-22T02:47:53.265Z,23.41
2017-01-22T02:48:53.197Z,23.46
2017-01-22T02:49:53.138Z,23.46
2017-01-22T02:50:53.080Z,23.46
2017-01-22T02:51:53.013Z,23.44
2017-01-22T02:52:52.954Z,23.46
2017-01-22T02:53:52.890Z,23.46
2017-01-22T02:54:52.829Z,23.48
2017-01-22T02:55:52.766Z,23.4
2017-01-22T02:56:52.716Z,23.41
2017-01-22T02:57:52.647Z,23.44
2017-01-22T02:58:52.583Z,23.46
2017-01-22T02:59:52.520Z,23.5
2017-01-22T03:00:52.461Z,23.46
2017-01-22T03:01:52.398Z,23.46
2017-01-22T03:02:52.336Z,23.44
2017-01-22T03:03:52.274Z,23.43
2017-01-22T03:04:52.219Z,23.48
2017-01-22T03:05:52.151Z,23.44
2017-01-22T03:06:52.093Z,23.47
2017-01-22T03:07:52.028Z,23.4
2017-01-22T03:08:51.964Z,23.44
2017-01-22T03:09:51.905Z,23.44
2017-01-22T03:10:51.844Z,23.4
2017-01-22T03:11:51.783Z,23.44
2017-01-22T03:12:51.731Z,23.46
2017-01-22T03:13:51.660Z,23.4
2017-01-22T03:14:51.596Z,23.47
2017-01-22T03:15:51.562Z,23.48
2017-01-22T03:16:51.470Z,23.46
2017-01-22T03:17:51.413Z,23.44
2017-01-22T03:18:51.349Z,23.46
2017-01-22T03:19:51.290Z,23.48
2017-01-22T03:20:51.224Z,23.43
2017-01-22T03:21:51.163Z,23.43
2017-01-22T03:22:51.100Z,23.48
2017-01-22T03:23:51.043Z,23.41
2017-01-22T03:24:50.983Z,23.41
2017-01-22T03:25:50.920Z,23.44
2017-01-22T03:26:50.857Z,23.43
2017-01-22T03:27:50.793Z,23.48
2017-01-22T03:28:50.731Z,23.47
2017-01-22T03:29:50.673Z,23.46
2017-01-22T03:30:50.608Z,23.44
2017-01-22T03:31:50.547Z,23.47
2017-01-22T03:32:50.485Z,23.48
2017-01-22T03:33:50.426Z,23.46
2017-01-22T03:34:50.361Z,23.41
2017-01-22T03:35:50.300Z,23.47
2017-01-22T03:36:50.239Z,23.43
2017-01-22T03:37:50.178Z,23.44
2017-01-22T03:38:50.117Z,23.47
2017-01-22T03:39:50.061Z,23.48
2017-01-22T03:40:49.991Z,23.47
2017-01-22T03:41:49.929Z,23.41
2017-01-22T03:42:49.871Z,23.46
2017-01-22T03:43:49.806Z,23.46
2017-01-22T03:44:49.748Z,23.34
2017-01-22T03:45:49.687Z,23.44
2017-01-22T03:46:49.623Z,23.44
2017-01-22T03:47:49.561Z,23.46
2017-01-22T03:48:49.498Z,23.31
2017-01-22T03:49:49.435Z,23.37
2017-01-22T03:50:49.376Z,23.36
2017-01-22T03:51:49.316Z,23.46
2017-01-22T03:52:49.253Z,23.46
2017-01-22T03:53:49.194Z,23.48
2017-01-22T03:54:49.127Z,23.32
2017-01-22T03:55:49.069Z,23.36
2017-01-22T03:56:49.006Z,23.32
2017-01-22T03:57:48.944Z,23.39
2017-01-22T03:58:48.883Z,23.39
2017-01-22T03:59:48.821Z,23.36
2017-01-22T04:00:48.758Z,23.46
2017-01-22T04:01:48.702Z,23.46
2017-01-22T04:02:49.032Z,23.44
2017-01-22T04:03:48.573Z,23.36
2017-01-22T04:04:48.510Z,23.5
2017-01-22T04:05:48.854Z,23.34
2017-01-22T04:06:48.387Z,23.36
2017-01-22T04:07:48.327Z,23.31
2017-01-22T04:08:48.265Z,23.46
2017-01-22T04:09:48.207Z,23.36
2017-01-22T04:10:48.141Z,23.37
2017-01-22T04:11:48.079Z,23.36
2017-01-22T04:12:48.023Z,23.39
2017-01-22T04:13:47.989Z,23.4
2017-01-22T04:14:47.893Z,23.34
2017-01-22T04:15:47.829Z,23.37
2017-01-22T04:16:48.165Z,23.34
2017-01-22T04:17:47.708Z,23.34
2017-01-22T04:18:47.656Z,23.31
2017-01-22T04:19:47.609Z,23.32
2017-01-22T04:20:47.523Z,23.31
2017-01-22T04:21:47.461Z,23.37
2017-01-22T04:22:47.399Z,23.37
2017-01-22T04:23:47.336Z,23.36
2017-01-22T04:24:47.275Z,23.4
2017-01-22T04:25:47.604Z,23.32
2017-01-22T04:26:47.156Z,23.34
2017-01-22T04:27:47.093Z,23.36
2017-01-22T04:28:47.026Z,23.32
2017-01-22T04:29:46.969Z,23.27
2017-01-22T04:30:46.903Z,23.32
2017-01-22T04:31:46.848Z,23.32
2017-01-22T04:32:46.779Z,23.34
2017-01-22T04:33:46.720Z,23.32
2017-01-22T04:34:46.658Z,23.36
2017-01-22T04:35:46.597Z,23.32
2017-01-22T04:36:46.534Z,23.34
2017-01-22T04:37:46.474Z,23.31
2017-01-22T04:38:46.407Z,23.32
2017-01-22T04:39:46.347Z,23.32
2017-01-22T04:40:46.284Z,23.32
2017-01-22T04:41:46.224Z,23.37
2017-01-22T04:42:46.163Z,23.28
2017-01-22T04:43:46.103Z,23.32
2017-01-22T04:44:46.045Z,23.34
2017-01-22T04:45:45.975Z,23.34
2017-01-22T04:46:45.915Z,23.32
2017-01-22T04:47:45.854Z,23.34
2017-01-22T04:48:45.790Z,23.4
2017-01-22T04:49:45.728Z,23.28
2017-01-22T04:50:45.668Z,23.36
2017-01-22T04:51:45.605Z,23.28
2017-01-22T04:52:45.543Z,23.39
2017-01-22T04:53:45.483Z,23.4
2017-01-22T04:54:45.423Z,23.27
2017-01-22T04:55:45.359Z,23.27
2017-01-22T04:56:45.296Z,23.41
2017-01-22T04:57:45.234Z,23.28
2017-01-22T04:58:45.174Z,23.36
2017-01-22T04:59:45.108Z,23.36
2017-01-22T05:00:45.056Z,23.36
2017-01-22T05:01:44.987Z,23.31
2017-01-22T05:02:44.928Z,23.37
2017-01-22T05:03:44.865Z,23.27
2017-01-22T05:04:44.804Z,23.31
2017-01-22T05:05:44.765Z,23.27
2017-01-22T05:06:44.675Z,23.25
2017-01-22T05:07:44.619Z,23.36
2017-01-22T05:08:44.552Z,23.25
2017-01-22T05:09:44.488Z,23.27
2017-01-22T05:10:44.430Z,23.28
2017-01-22T05:11:44.366Z,23.36
2017-01-22T05:12:44.301Z,23.25
2017-01-22T05:13:44.267Z,23.28
2017-01-22T05:14:44.178Z,23.27
2017-01-22T05:15:44.118Z,23.34
2017-01-22T05:16:44.053Z,23.25
2017-01-22T05:17:43.993Z,23.24
2017-01-22T05:18:43.938Z,23.31
2017-01-22T05:19:43.877Z,23.34
2017-01-22T05:20:43.806Z,23.31
2017-01-22T05:21:43.744Z,23.34
2017-01-22T05:22:43.685Z,23.28
2017-01-22T05:23:43.654Z,23.32
2017-01-22T05:24:43.558Z,23.24
2017-01-22T05:25:43.500Z,23.27
2017-01-22T05:26:43.437Z,23.31
2017-01-22T05:27:43.373Z,23.23
2017-01-22T05:28:43.318Z,23.27
2017-01-22T05:29:43.250Z,23.27
2017-01-22T05:30:43.191Z,23.28
2017-01-22T05:31:43.129Z,23.23
2017-01-22T05:32:43.062Z,23.23
2017-01-22T05:33:43.003Z,23.24
2017-01-22T05:34:42.963Z,23.21
2017-01-22T05:35:42.876Z,23.21
2017-01-22T05:36:42.822Z,23.18
2017-01-22T05:37:42.759Z,23.28
2017-01-22T05:38:42.691Z,23.27
2017-01-22T05:39:42.631Z,23.2
2017-01-22T05:40:42.568Z,23.2
2017-01-22T05:41:42.506Z,23.21
2017-01-22T05:42:42.443Z,23.21
2017-01-22T05:43:42.383Z,23.2
2017-01-22T05:44:42.326Z,23.23
2017-01-22T05:45:42.257Z,23.25
2017-01-22T05:46:42.200Z,23.28
2017-01-22T05:47:42.140Z,23.25
2017-01-22T05:48:42.076Z,23.2
2017-01-22T05:49:42.012Z,23.24
2017-01-22T05:50:41.953Z,23.24
2017-01-22T05:51:41.889Z,23.17
2017-01-22T05:52:41.824Z,23.18
2017-01-22T05:53:41.767Z,23.25
2017-01-22T05:54:41.705Z,23.23
2017-01-22T05:55:41.637Z,23.23
2017-01-22T05:56:41.576Z,23.21
2017-01-22T05:57:41.517Z,23.2
2017-01-22T05:58:41.459Z,23.25
2017-01-22T05:59:41.393Z,23.21
2017-01-22T06:00:41.328Z,23.2
2017-01-22T06:01:41.271Z,23.2
2017-01-22T06:02:41.592Z,23.27
2017-01-22T06:03:41.142Z,23.24
2017-01-22T06:04:41.082Z,23.25
2017-01-22T06:05:41.018Z,23.24
2017-01-22T06:06:40.955Z,23.28
2017-01-22T06:07:40.895Z,23.27
2017-01-22T06:08:40.835Z,23.36
2017-01-22T06:09:40.773Z,23.37
2017-01-22T06:10:40.710Z,23.34
2017-01-22T06:11:40.647Z,23.34
2017-01-22T06:12:40.590Z,23.31
2017-01-22T06:13:40.526Z,23.27
2017-01-22T06:14:40.461Z,23.28
2017-01-22T06:15:40.399Z,23.43
2017-01-22T06:16:40.727Z,23.36
2017-01-22T06:17:40.276Z,23.34
2017-01-22T06:18:40.213Z,23.41
2017-01-22T06:19:40.157Z,23.39
2017-01-22T06:20:40.090Z,23.34
2017-01-22T06:21:40.031Z,23.4
2017-01-22T06:22:39.968Z,23.4
2017-01-22T06:23:39.907Z,23.31
2017-01-22T06:24:39.844Z,23.44
2017-01-22T06:25:39.782Z,23.32
2017-01-22T06:26:39.721Z,23.41
2017-01-22T06:27:39.665Z,23.46
2017-01-22T06:28:39.600Z,23.41
2017-01-22T06:29:39.534Z,23.43
2017-01-22T06:30:39.474Z,23.44
2017-01-22T06:31:39.418Z,23.41
2017-01-22T06:32:39.363Z,23.46
2017-01-22T06:33:39.288Z,23.46
2017-01-22T06:34:39.258Z,23.47
2017-01-22T06:35:39.166Z,23.34
2017-01-22T06:36:39.106Z,23.44
2017-01-22T06:37:39.047Z,23.41
2017-01-22T06:38:38.983Z,23.46
2017-01-22T06:39:38.921Z,23.46
2017-01-22T06:40:38.856Z,23.47
2017-01-22T06:41:38.800Z,23.41
2017-01-22T06:42:38.736Z,23.39
2017-01-22T06:43:38.673Z,23.41
2017-01-22T06:44:38.615Z,23.44
2017-01-22T06:45:38.548Z,23.47
2017-01-22T06:46:38.491Z,23.44
2017-01-22T06:47:38.432Z,23.41
2017-01-22T06:48:38.365Z,23.43
2017-01-22T06:49:38.304Z,23.47
2017-01-22T06:50:38.246Z,23.48
2017-01-22T06:51:38.206Z,23.48
2017-01-22T06:52:38.506Z,23.46
2017-01-22T06:53:38.057Z,23.47
2017-01-22T06:54:37.998Z,23.43
2017-01-22T06:55:37.935Z,23.43
2017-01-22T06:56:37.874Z,23.46
2017-01-22T06:57:37.813Z,23.46
2017-01-22T06:58:37.749Z,23.46
2017-01-22T06:59:37.693Z,23.46
2017-01-22T07:00:37.623Z,23.4
2017-01-22T07:01:37.567Z,23.48
2017-01-22T07:02:37.500Z,23.43
2017-01-22T07:03:37.438Z,23.44
2017-01-22T07:04:37.380Z,23.4
2017-01-22T07:05:37.314Z,23.46
2017-01-22T07:06:37.255Z,23.46
2017-01-22T07:07:37.192Z,23.44
2017-01-22T07:08:37.526Z,23.48
2017-01-22T07:09:37.073Z,23.47
2017-01-22T07:10:37.009Z,23.4
2017-01-22T07:11:36.946Z,23.47
2017-01-22T07:12:36.885Z,23.44
2017-01-22T07:13:36.822Z,23.41
2017-01-22T07:14:36.760Z,23.44
2017-01-22T07:15:36.699Z,23.47
2017-01-22T07:16:36.637Z,23.48
2017-01-22T07:17:36.580Z,23.41
2017-01-22T07:18:36.516Z,23.4
2017-01-22T07:19:36.451Z,23.43
2017-01-22T07:20:36.389Z,23.44
2017-01-22T07:21:36.331Z,23.44
2017-01-22T07:22:36.266Z,23.47
2017-01-22T07:23:36.204Z,23.44
2017-01-22T07:24:36.144Z,23.47
2017-01-22T07:25:36.081Z,23.47
2017-01-22T07:26:36.025Z,23.44
2017-01-22T07:27:35.959Z,23.46
2017-01-22T07:28:35.896Z,23.46
2017-01-22T07:29:35.861Z,23.44
2017-01-22T07:30:35.775Z,23.47
2017-01-22T07:31:36.101Z,23.46
2017-01-22T07:32:35.650Z,23.46
2017-01-22T07:33:35.590Z,23.41
2017-01-22T07:34:35.528Z,23.46
2017-01-22T07:35:35.464Z,23.48
2017-01-22T07:36:35.402Z,23.43
2017-01-22T07:37:35.341Z,23.46
2017-01-22T07:38:35.281Z,23.44
2017-01-22T07:39:35.218Z,23.43
2017-01-22T07:40:35.159Z,23.44
2017-01-22T07:41:35.095Z,23.43
2017-01-22T07:42:35.036Z,23.41
2017-01-22T07:43:34.970Z,23.44
2017-01-22T07:44:34.914Z,23.44
2017-01-22T07:45:34.850Z,23.47
2017-01-22T07:46:34.788Z,23.5
2017-01-22T07:47:34.721Z,23.41
2017-01-22T07:48:34.659Z,23.46
2017-01-22T07:49:34.602Z,23.44
2017-01-22T07:50:34.538Z,23.44
2017-01-22T07:51:34.479Z,23.37
2017-01-22T07:52:34.437Z,23.41
2017-01-22T07:53:34.353Z,23.47
2017-01-22T07:54:34.290Z,23.34
2017-01-22T07:55:34.231Z,23.39
2017-01-22T07:56:34.171Z,23.4
2017-01-22T07:57:34.105Z,23.41
2017-01-22T07:58:34.041Z,23.44
2017-01-22T07:59:33.979Z,23.44
2017-01-22T08:00:33.918Z,23.36
2017-01-22T08:01:33.854Z,23.44
2017-01-22T08:02:33.798Z,23.36
2017-01-22T08:03:33.733Z,23.43
2017-01-22T08:04:33.673Z,23.44
2017-01-22T08:05:33.610Z,23.37
2017-01-22T08:06:33.548Z,23.37
2017-01-22T08:07:33.877Z,23.47
2017-01-22T08:08:33.426Z,23.32
2017-01-22T08:09:33.363Z,23.37
2017-01-22T08:10:33.301Z,23.37
2017-01-22T08:11:33.238Z,23.34
2017-01-22T08:12:33.178Z,23.34
2017-01-22T08:13:33.116Z,23.36
2017-01-22T08:14:33.055Z,23.34
2017-01-22T08:15:32.991Z,23.39
2017-01-22T08:16:32.927Z,23.37
2017-01-22T08:17:32.874Z,23.4
2017-01-22T08:18:32.804Z,23.31
2017-01-22T08:19:32.744Z,23.34
2017-01-22T08:20:32.681Z,23.37
2017-01-22T08:21:32.619Z,23.39
2017-01-22T08:22:32.554Z,23.34
2017-01-22T08:23:32.496Z,23.27
2017-01-22T08:24:32.432Z,23.36
2017-01-22T08:25:32.371Z,23.44
2017-01-22T08:26:32.311Z,23.25
2017-01-22T08:27:32.244Z,23.34
2017-01-22T08:28:32.184Z,23.34
2017-01-22T08:29:32.513Z,23.34
2017-01-22T08:30:32.065Z,23.37
2017-01-22T08:31:32.002Z,23.31
2017-01-22T08:32:31.942Z,23.25
2017-01-22T08:33:31.874Z,23.27
2017-01-22T08:34:31.825Z,23.27
2017-01-22T08:35:31.754Z,23.43
2017-01-22T08:36:31.690Z,23.28
2017-01-22T08:37:31.630Z,23.28
2017-01-22T08:38:31.567Z,23.36
2017-01-22T08:39:31.531Z,23.34
2017-01-22T08:40:31.645Z,23.32
2017-01-22T08:41:31.394Z,23.32
2017-01-22T08:42:31.330Z,23.31
2017-01-22T08:43:31.649Z,23.31
2017-01-22T08:44:31.223Z,23.27
2017-01-22T08:45:31.145Z,23.27
2017-01-22T08:46:31.093Z,23.31
2017-01-22T08:47:31.010Z,23.28
2017-01-22T08:48:30.950Z,23.34
2017-01-22T08:49:30.884Z,23.28
2017-01-22T08:50:30.823Z,23.25
2017-01-22T08:51:30.762Z,23.27
2017-01-22T08:52:30.701Z,23.31
2017-01-22T08:53:30.639Z,23.37
2017-01-22T08:54:30.575Z,23.27
2017-01-22T08:55:30.515Z,23.37
2017-01-22T08:56:30.460Z,23.37
2017-01-22T08:57:30.391Z,23.28
2017-01-22T08:58:30.332Z,23.28
2017-01-22T08:59:30.268Z,23.25
2017-01-22T09:00:30.203Z,23.32
2017-01-22T09:01:30.537Z,23.27
2017-01-22T09:02:30.085Z,23.37
2017-01-22T09:03:30.020Z,23.32
2017-01-22T09:04:29.962Z,23.32
2017-01-22T09:05:29.898Z,23.32
2017-01-22T09:06:29.838Z,23.25
2017-01-22T09:07:29.771Z,23.31
2017-01-22T09:08:29.718Z,23.37
2017-01-22T09:09:29.649Z,23.25
2017-01-22T09:10:29.585Z,23.28
2017-01-22T09:11:29.525Z,23.32
2017-01-22T09:12:29.464Z,23.36
2017-01-22T09:13:29.401Z,23.32
2017-01-22T09:14:29.341Z,23.25
2017-01-22T09:15:29.308Z,23.24
2017-01-22T09:16:29.214Z,23.31
2017-01-22T09:17:29.156Z,23.31
2017-01-22T09:18:29.097Z,23.23
2017-01-22T09:19:29.029Z,23.28
2017-01-22T09:20:28.966Z,23.25
2017-01-22T09:21:28.906Z,23.25
2017-01-22T09:22:28.847Z,23.31
2017-01-22T09:23:28.782Z,23.31
2017-01-22T09:24:28.721Z,23.37
2017-01-22T09:25:28.658Z,23.23
2017-01-22T09:26:28.602Z,23.31
2017-01-22T09:27:28.535Z,23.27
2017-01-22T09:28:28.471Z,23.23
2017-01-22T09:29:28.410Z,23.31
2017-01-22T09:30:28.350Z,23.28
2017-01-22T09:31:28.290Z,23.23
2017-01-22T09:32:28.231Z,23.24
2017-01-22T09:33:28.557Z,23.24
2017-01-22T09:34:28.103Z,23.24
2017-01-22T09:35:28.043Z,23.23
2017-01-22T09:36:27.981Z,23.24
2017-01-22T09:37:28.308Z,23.2
2017-01-22T09:38:27.858Z,23.23
2017-01-22T09:39:27.792Z,23.24
2017-01-22T09:40:27.729Z,23.18
2017-01-22T09:41:27.668Z,23.2
2017-01-22T09:42:27.613Z,23.23
2017-01-22T09:43:27.545Z,23.23
2017-01-22T09:44:27.483Z,23.2
2017-01-22T09:45:27.422Z,23.21
2017-01-22T09:46:27.360Z,23.27
2017-01-22T09:47:27.299Z,23.28
2017-01-22T09:48:27.237Z,23.24
2017-01-22T09:49:27.181Z,23.21
2017-01-22T09:50:27.114Z,23.25
2017-01-22T09:51:27.049Z,23.23
2017-01-22T09:52:26.989Z,23.21
2017-01-22T09:53:26.929Z,23.21
2017-01-22T09:54:26.893Z,23.25
2017-01-22T09:55:26.805Z,23.24
2017-01-22T09:56:26.744Z,23.25
2017-01-22T09:57:26.685Z,23.24
2017-01-22T09:58:26.620Z,23.23
2017-01-22T09:59:26.557Z,23.27
2017-01-22T10:00:26.495Z,23.21
2017-01-22T10:01:26.433Z,23.32
2017-01-22T10:02:26.370Z,23.23
2017-01-22T10:03:26.699Z,23.24
2017-01-22T10:04:26.246Z,23.24
2017-01-22T10:05:26.189Z,23.34
2017-01-22T10:06:26.515Z,23.31
2017-01-22T10:07:26.063Z,23.34
2017-01-22T10:08:26.000Z,23.34
2017-01-22T10:09:25.940Z,23.32
2017-01-22T10:10:25.874Z,23.27
2017-01-22T10:11:25.812Z,23.32
2017-01-22T10:12:25.754Z,23.32
2017-01-22T10:13:25.690Z,23.39
2017-01-22T10:14:25.641Z,23.31
2017-01-22T10:15:25.565Z,23.31
2017-01-22T10:16:25.504Z,23.27
2017-01-22T10:17:25.443Z,23.31
2017-01-22T10:18:25.383Z,23.32
2017-01-22T10:19:25.319Z,23.32
2017-01-22T10:20:25.264Z,23.36
2017-01-22T10:21:25.199Z,23.32
2017-01-22T10:22:25.136Z,23.32
2017-01-22T10:23:25.072Z,23.27
2017-01-22T10:24:25.011Z,23.28
2017-01-22T10:25:24.950Z,23.41
2017-01-22T10:26:24.886Z,23.39
2017-01-22T10:27:24.826Z,23.31
2017-01-22T10:28:24.765Z,23.47
2017-01-22T10:29:24.703Z,23.4
2017-01-22T10:30:24.661Z,23.32
2017-01-22T10:31:24.578Z,23.43
2017-01-22T10:32:24.518Z,23.36
2017-01-22T10:33:24.460Z,23.46
2017-01-22T10:34:24.391Z,23.36
2017-01-22T10:35:24.333Z,23.44
2017-01-22T10:36:24.273Z,23.46
2017-01-22T10:37:24.210Z,23.34
2017-01-22T10:38:24.150Z,23.46
2017-01-22T10:39:24.087Z,23.44
2017-01-22T10:40:24.023Z,23.48
2017-01-22T10:41:23.969Z,23.44
2017-01-22T10:42:23.902Z,23.43
2017-01-22T10:43:23.844Z,23.46
2017-01-22T10:44:23.785Z,23.47
2017-01-22T10:45:23.724Z,23.48
2017-01-22T10:46:23.658Z,23.47
2017-01-22T10:47:23.593Z,23.44
2017-01-22T10:48:23.536Z,23.41
2017-01-22T10:49:23.470Z,23.48
2017-01-22T10:50:23.413Z,23.43
2017-01-22T10:51:23.352Z,23.5
2017-01-22T10:52:23.284Z,23.5
2017-01-22T10:53:23.225Z,23.47
2017-01-22T10:54:23.164Z,23.46
2017-01-22T10:55:23.110Z,23.46
2017-01-22T10:56:23.039Z,23.43
2017-01-22T10:57:22.979Z,23.48
2017-01-22T10:58:22.921Z,23.46
2017-01-22T10:59:22.858Z,23.5
2017-01-22T11:00:22.794Z,23.4
2017-01-22T11:01:22.731Z,23.44
2017-01-22T11:02:22.674Z,23.48
2017-01-22T11:03:22.607Z,23.44
2017-01-22T11:04:22.549Z,23.46
2017-01-22T11:05:22.486Z,23.43
2017-01-22T11:06:22.425Z,23.44
2017-01-22T11:07:22.365Z,23.41
2017-01-22T11:08:22.302Z,23.47
2017-01-22T11:09:22.246Z,23.44
2017-01-22T11:10:22.184Z,23.48
2017-01-22T11:11:22.118Z,23.48
2017-01-22T11:12:22.055Z,23.46
2017-01-22T11:13:21.998Z,23.41
2017-01-22T11:14:21.934Z,23.46
2017-01-22T11:15:21.893Z,23.46
2017-01-22T11:16:21.808Z,23.47
2017-01-22T11:17:21.750Z,23.46
2017-01-22T11:18:21.686Z,23.48
2017-01-22T11:19:21.626Z,23.44
2017-01-22T11:20:21.562Z,23.48
2017-01-22T11:21:21.502Z,23.46
2017-01-22T11:22:21.437Z,23.48
2017-01-22T11:23:21.379Z,23.48
2017-01-22T11:24:21.319Z,23.47
2017-01-22T11:25:21.257Z,23.48
2017-01-22T11:26:21.196Z,23.5
2017-01-22T11:27:21.153Z,23.4
2017-01-22T11:28:21.067Z,23.47
2017-01-22T11:29:21.013Z,23.46
2017-01-22T11:30:20.949Z,23.47
2017-01-22T11:31:20.884Z,23.5
2017-01-22T11:32:20.826Z,23.41
2017-01-22T11:33:20.761Z,23.47
2017-01-22T11:34:20.701Z,23.44
2017-01-22T11:35:20.638Z,23.46
2017-01-22T11:36:20.573Z,23.48
2017-01-22T11:37:20.514Z,23.5
2017-01-22T11:38:20.453Z,23.46
2017-01-22T11:39:20.389Z,23.46
2017-01-22T11:40:20.330Z,23.48
2017-01-22T11:41:20.270Z,23.41
2017-01-22T11:42:20.210Z,23.4
2017-01-22T11:43:20.359Z,23.44
2017-01-22T11:44:20.083Z,23.47
2017-01-22T11:45:20.020Z,23.47
2017-01-22T11:46:19.969Z,23.46
2017-01-22T11:47:19.899Z,23.41
2017-01-22T11:48:19.839Z,23.46
2017-01-22T11:49:19.776Z,23.44
2017-01-22T11:50:19.711Z,23.46
2017-01-22T11:51:19.655Z,23.44
2017-01-22T11:52:19.590Z,23.44
2017-01-22T11:53:19.528Z,23.44
2017-01-22T11:54:19.464Z,23.44
2017-01-22T11:55:19.796Z,23.48
2017-01-22T11:56:19.340Z,23.36
2017-01-22T11:57:19.283Z,23.46
2017-01-22T11:58:19.215Z,23.44
2017-01-22T11:59:19.553Z,23.41
2017-01-22T12:00:19.093Z,23.47
2017-01-22T12:01:19.037Z,23.41
2017-01-22T12:02:18.972Z,23.44
2017-01-22T12:03:18.915Z,23.37
2017-01-22T12:04:18.850Z,23.47
2017-01-22T12:05:18.790Z,23.37
2017-01-22T12:06:18.730Z,23.39
2017-01-22T12:07:18.667Z,23.28
2017-01-22T12:08:18.603Z,23.37
2017-01-22T12:09:18.540Z,23.36
2017-01-22T12:10:18.484Z,23.46
2017-01-22T12:11:18.417Z,23.43
2017-01-22T12:12:18.352Z,23.32
2017-01-22T12:13:18.292Z,23.34
2017-01-22T12:14:18.237Z,23.28
2017-01-22T12:15:18.169Z,23.36
2017-01-22T12:16:18.314Z,23.36
2017-01-22T12:17:18.048Z,23.34
2017-01-22T12:18:17.994Z,23.34
2017-01-22T12:19:17.922Z,23.37
2017-01-22T12:20:17.858Z,23.31
2017-01-22T12:21:18.187Z,23.43
2017-01-22T12:22:17.740Z,23.39
2017-01-22T12:23:17.676Z,23.31
2017-01-22T12:24:17.614Z,23.27
2017-01-22T12:25:17.552Z,23.27
2017-01-22T12:26:17.490Z,23.31
2017-01-22T12:27:17.427Z,23.31
2017-01-22T12:28:17.366Z,23.37
2017-01-22T12:29:17.305Z,23.31
2017-01-22T12:30:17.243Z,23.27
2017-01-22T12:31:17.179Z,23.32
2017-01-22T12:32:17.123Z,23.28
2017-01-22T12:33:17.058Z,23.27
2017-01-22T12:34:16.997Z,23.43
2017-01-22T12:35:16.935Z,23.36
2017-01-22T12:36:16.873Z,23.27
2017-01-22T12:37:16.811Z,23.34
2017-01-22T12:38:16.746Z,23.28
2017-01-22T12:39:16.686Z,23.37
2017-01-22T12:40:16.983Z,23.32
2017-01-22T12:41:16.569Z,23.31
2017-01-22T12:42:16.503Z,23.31
2017-01-22T12:43:16.441Z,23.32
2017-01-22T12:44:16.407Z,23.34
2017-01-22T12:45:16.314Z,23.31
2017-01-22T12:46:16.254Z,23.31
2017-01-22T12:47:16.192Z,23.32
2017-01-22T12:48:16.130Z,23.28
2017-01-22T12:49:16.068Z,23.34
2017-01-22T12:50:16.004Z,23.31
2017-01-22T12:51:15.945Z,23.27
2017-01-22T12:52:15.884Z,23.32
2017-01-22T12:53:15.818Z,23.28
2017-01-22T12:54:15.758Z,23.28
2017-01-22T12:55:15.694Z,23.31
2017-01-22T12:56:15.637Z,23.34